This is the latest recevied weather packets stored in our database for station/object IT9KVB-11. If no packets are shown the sender has not sent any weather packets the latest 10 day(s).
| Time | Temp. | Humidity | Pressure | Rain* | Wind** | Luminosity | Snow |
|---|---|---|---|---|---|---|---|
| 1777629995 | 13.89° C | 77% | 925 hPa | 0 mm | 34.87 m/s, 0° | - | - |
| 1777629079 | 14.44° C | 74% | 925 hPa | 0 mm | 15.2 m/s, 0° | - | - |
| 1777628163 | 15.56° C | 68% | 925 hPa | 0 mm | 36.21 m/s, 0° | - | - |
| 1777627247 | 15.56° C | 70% | 925 hPa | 0 mm | 30.85 m/s, 0° | - | - |
| 1777626331 | 15.56° C | 78% | 925 hPa | 0 mm | 4.02 m/s, 0° | - | - |
| 1777625415 | 13.89° C | 81% | 924 hPa | 0 mm | 0 m/s | - | - |
| 1777624499 | 15.56° C | 75% | 924 hPa | 0 mm | 4.02 m/s, 0° | - | - |
| 1777623583 | 15.56° C | 81% | 924 hPa | 0 mm | 8.94 m/s, 0° | - | - |
| 1777622667 | 12.78° C | 88% | 924 hPa | 0 mm | 0 m/s | - | - |
| 1777621751 | 12.78° C | 87% | 924 hPa | 0 mm | 0 m/s | - | - |
| 1777620836 | 13.89° C | 82% | 924 hPa | 0 mm | 8.05 m/s, 0° | - | - |
| 1777619919 | 15° C | 76% | 924 hPa | 0 mm | 0.89 m/s, 0° | - | - |
| 1777619004 | 15° C | 76% | 924 hPa | 0 mm | 4.02 m/s, 0° | - | - |
| 1777618088 | 13.89° C | 81% | 924 hPa | 0 mm | 11.18 m/s, 0° | - | - |
| 1777617172 | 13.33° C | 87% | 924 hPa | 0 mm | 0 m/s | - | - |
| 1777616256 | 11.67° C | 93% | 924 hPa | 0 mm | 0 m/s | - | - |
| 1777615340 | 10.56° C | 95% | 924 hPa | 0 mm | 0.89 m/s, 0° | - | - |
| 1777614424 | 10.56° C | 95% | 924 hPa | 0 mm | 0.89 m/s, 0° | - | - |
| 1777613508 | 10.56° C | 95% | 924 hPa | 0 mm | 0 m/s | - | - |
| 1777612592 | 10.56° C | 95% | 924 hPa | 0 mm | 0 m/s | - | - |
| 1777611676 | 10° C | 95% | 924 hPa | 0 mm | 0 m/s | - | - |
| 1777610760 | 10.56° C | 95% | 923 hPa | 0 mm | 4.92 m/s, 0° | - | - |
| 1777609844 | 10° C | 95% | 923 hPa | 0 mm | 0 m/s | - | - |
| 1777608928 | 10° C | 94% | 923 hPa | 0 mm | 0 m/s | - | - |
| 1777608012 | 10° C | 94% | 923 hPa | 0 mm | 0 m/s | - | - |
* Rain latest hour (hover to see other rain measurements)
** Current wind speed in m/s (hover to see current wind gust speed)